createdAt,value
2023-03-22T00:01:20.706Z,15.73
2023-03-22T00:03:25.412Z,13.97
2023-03-22T00:05:30.378Z,16.70
2023-03-22T00:07:33.136Z,15.60
2023-03-22T00:09:36.437Z,14.20
2023-03-22T00:11:39.191Z,15.93
2023-03-22T00:13:43.936Z,15.73
2023-03-22T00:15:49.434Z,14.07
2023-03-22T00:17:52.227Z,13.53
2023-03-22T00:19:56.308Z,15.97
2023-03-22T00:22:00.698Z,15.70
2023-03-22T00:24:03.497Z,11.63
2023-03-22T00:26:07.017Z,15.20
2023-03-22T00:28:09.793Z,16.60
2023-03-22T00:30:13.464Z,14.67
2023-03-22T00:32:16.205Z,14.77
2023-03-22T00:34:18.989Z,17.57
2023-03-22T00:36:23.266Z,15.53
2023-03-22T00:38:42.032Z,15.27
2023-03-22T00:40:45.754Z,15.10
2023-03-22T00:42:48.540Z,16.33
2023-03-22T00:44:51.341Z,15.07
2023-03-22T00:46:54.320Z,15.83
2023-03-22T00:48:57.397Z,15.53
2023-03-22T00:51:00.221Z,15.80
2023-03-22T00:53:04.501Z,17.83
2023-03-22T00:55:07.850Z,14.93
2023-03-22T00:57:10.781Z,14.80
2023-03-22T00:59:14.125Z,14.40
2023-03-22T01:01:16.891Z,16.27
2023-03-22T01:03:21.885Z,14.57
2023-03-22T01:05:24.740Z,13.03
2023-03-22T01:07:27.558Z,15.63
2023-03-22T01:09:33.841Z,13.87
2023-03-22T01:11:36.650Z,15.30
2023-03-22T01:13:41.733Z,15.03
2023-03-22T01:15:44.902Z,14.20
2023-03-22T01:17:47.709Z,12.53
2023-03-22T01:19:50.642Z,13.10
2023-03-22T01:21:53.553Z,12.70
2023-03-22T01:23:56.337Z,15.03
2023-03-22T01:26:01.340Z,13.47
2023-03-22T01:28:04.294Z,13.53
2023-03-22T01:30:08.643Z,14.43
2023-03-22T01:32:11.437Z,14.83
2023-03-22T01:34:14.461Z,14.27
2023-03-22T01:36:17.225Z,15.03
2023-03-22T01:38:20.576Z,14.43
2023-03-22T01:40:23.525Z,14.07
2023-03-22T01:42:28.011Z,13.67
2023-03-22T01:44:31.678Z,14.93
2023-03-22T01:46:34.486Z,15.73
2023-03-22T01:48:42.046Z,18.17
2023-03-22T01:50:49.527Z,15.27
2023-03-22T01:52:54.081Z,15.40
2023-03-22T01:54:57.352Z,15.23
2023-03-22T01:57:01.524Z,15.43
2023-03-22T01:59:07.351Z,15.90
2023-03-22T02:01:12.016Z,14.87
2023-03-22T02:03:19.180Z,13.83
2023-03-22T02:05:23.147Z,14.50
2023-03-22T02:07:27.349Z,12.93
2023-03-22T02:09:30.487Z,15.77
2023-03-22T02:11:36.166Z,16.73
2023-03-22T02:14:05.995Z,15.50
2023-03-22T02:16:22.687Z,17.70
2023-03-22T02:18:39.913Z,14.57
2023-03-22T02:21:25.896Z,15.53
2023-03-22T02:24:00.772Z,15.53
2023-03-22T02:26:31.006Z,14.87
2023-03-22T02:28:43.602Z,17.30
2023-03-22T02:31:15.565Z,13.47
2023-03-22T02:33:34.942Z,16.93
2023-03-22T02:35:56.702Z,14.97
2023-03-22T02:38:27.665Z,17.13
2023-03-22T02:40:35.966Z,16.27
2023-03-22T02:42:50.921Z,17.07
2023-03-22T02:45:02.893Z,16.93
2023-03-22T02:47:09.602Z,15.13
2023-03-22T02:49:20.515Z,14.83
2023-03-22T02:51:30.560Z,15.47
2023-03-22T02:53:37.270Z,16.37
2023-03-22T02:55:57.394Z,14.90
2023-03-22T02:58:04.370Z,13.97
2023-03-22T03:00:12.380Z,15.97
2023-03-22T03:02:18.486Z,17.03
2023-03-22T03:04:26.800Z,15.27
2023-03-22T03:06:35.721Z,13.97
2023-03-22T03:08:39.879Z,14.33
2023-03-22T03:10:43.404Z,15.37
2023-03-22T03:12:47.737Z,14.90
2023-03-22T03:14:50.693Z,15.77
2023-03-22T03:17:10.545Z,15.97
2023-03-22T03:19:19.872Z,14.93
2023-03-22T03:21:32.736Z,15.37
2023-03-22T03:23:46.926Z,19.73
2023-03-22T03:25:58.835Z,16.30
2023-03-22T03:28:10.061Z,16.30
2023-03-22T03:30:17.109Z,17.00
2023-03-22T03:32:25.592Z,14.47
2023-03-22T03:34:34.431Z,17.03
2023-03-22T03:36:39.342Z,18.17
2023-03-22T03:38:47.031Z,18.97
2023-03-22T03:40:53.605Z,21.87
2023-03-22T03:42:59.023Z,17.30
2023-03-22T03:45:03.457Z,20.40
2023-03-22T03:47:08.364Z,21.80
2023-03-22T03:49:13.932Z,17.60
2023-03-22T03:51:16.762Z,20.10
2023-03-22T03:53:19.619Z,19.43
2023-03-22T03:55:22.951Z,25.00
2023-03-22T03:57:25.750Z,18.10
2023-03-22T03:59:28.548Z,16.23
2023-03-22T04:01:32.665Z,21.27
2023-03-22T04:03:35.438Z,24.20
2023-03-22T04:05:38.484Z,21.87
2023-03-22T04:07:41.747Z,18.20
2023-03-22T04:09:44.504Z,22.27
2023-03-22T04:11:47.242Z,22.03
2023-03-22T04:13:50.021Z,18.03
2023-03-22T04:15:57.439Z,21.20
2023-03-22T04:18:01.612Z,22.43
2023-03-22T04:20:06.216Z,22.43
2023-03-22T04:22:14.485Z,19.67
2023-03-22T04:24:17.258Z,22.63
2023-03-22T04:26:19.993Z,21.83
2023-03-22T04:28:24.019Z,20.13
2023-03-22T04:30:27.453Z,20.87
2023-03-22T04:32:30.252Z,24.70
2023-03-22T04:34:34.341Z,21.70
2023-03-22T04:36:39.468Z,20.73
2023-03-22T04:38:42.734Z,22.07
2023-03-22T04:40:46.790Z,25.23
2023-03-22T04:42:49.660Z,21.90
2023-03-22T04:44:52.460Z,23.70
2023-03-22T04:46:55.824Z,23.67
2023-03-22T04:48:59.170Z,27.80
2023-03-22T04:51:04.183Z,24.73
2023-03-22T04:53:07.352Z,25.80
2023-03-22T04:55:10.396Z,22.63
2023-03-22T04:57:13.151Z,22.67
2023-03-22T04:59:17.860Z,23.90
2023-03-22T05:01:20.731Z,23.17
2023-03-22T05:03:23.800Z,21.93
2023-03-22T05:05:26.650Z,20.70
2023-03-22T05:07:30.748Z,21.50
2023-03-22T05:09:34.011Z,19.53
2023-03-22T05:11:36.793Z,22.63
2023-03-22T05:13:40.022Z,25.83
2023-03-22T05:15:42.801Z,24.80
2023-03-22T05:17:45.786Z,23.53
2023-03-22T05:19:48.561Z,22.23
2023-03-22T05:21:57.923Z,22.37
2023-03-22T05:24:02.087Z,24.57
2023-03-22T05:26:04.985Z,25.97
2023-03-22T05:28:08.633Z,25.23
2023-03-22T05:30:12.037Z,23.50
2023-03-22T05:32:14.802Z,24.47
2023-03-22T05:34:17.588Z,24.37
2023-03-22T05:36:22.852Z,25.23
2023-03-22T05:38:25.684Z,26.33
2023-03-22T05:40:29.811Z,32.60
2023-03-22T05:42:32.722Z,29.60
2023-03-22T05:44:35.459Z,25.50
2023-03-22T05:46:38.280Z,24.80
2023-03-22T05:48:41.626Z,25.13
2023-03-22T05:50:44.377Z,28.07
2023-03-22T05:52:47.404Z,25.60
2023-03-22T05:54:50.276Z,26.23
2023-03-22T05:56:55.809Z,25.53
2023-03-22T05:58:59.160Z,25.83
2023-03-22T06:01:07.159Z,24.00
2023-03-22T06:03:09.992Z,24.30
2023-03-22T06:05:14.004Z,24.33
2023-03-22T06:07:16.823Z,23.47
2023-03-22T06:09:19.563Z,24.17
2023-03-22T06:11:22.687Z,27.53
2023-03-22T06:13:26.951Z,26.40
2023-03-22T06:15:29.704Z,28.33
2023-03-22T06:17:32.548Z,25.07
2023-03-22T06:19:35.383Z,25.10
2023-03-22T06:21:38.097Z,29.93
2023-03-22T06:23:41.395Z,23.97
2023-03-22T06:25:44.538Z,23.17
2023-03-22T06:27:47.279Z,25.70
2023-03-22T06:29:54.638Z,26.80
2023-03-22T06:31:57.384Z,24.00
2023-03-22T06:34:00.331Z,25.83
2023-03-22T06:36:03.436Z,23.87
2023-03-22T06:38:06.303Z,23.13
2023-03-22T06:40:10.566Z,23.60
2023-03-22T06:42:13.354Z,22.73
2023-03-22T06:44:16.599Z,21.40
2023-03-22T06:46:20.833Z,22.80
2023-03-22T06:48:23.682Z,24.10
2023-03-22T06:50:26.456Z,21.20
2023-03-22T06:52:29.185Z,23.50
2023-03-22T06:54:32.018Z,21.50
2023-03-22T06:56:34.756Z,23.97
2023-03-22T06:58:37.549Z,20.27
2023-03-22T07:00:40.674Z,19.87
2023-03-22T07:02:44.857Z,20.37
2023-03-22T07:04:47.817Z,19.80
2023-03-22T07:06:50.938Z,21.60
2023-03-22T07:08:53.722Z,17.37
2023-03-22T07:10:56.461Z,18.30
2023-03-22T07:12:59.297Z,19.53
2023-03-22T07:15:02.126Z,15.77
2023-03-22T07:17:04.957Z,16.27
2023-03-22T07:19:09.079Z,17.53
2023-03-22T07:21:11.856Z,16.47
2023-03-22T07:23:15.476Z,16.30
2023-03-22T07:25:19.161Z,14.17
2023-03-22T07:27:22.080Z,18.20
2023-03-22T07:29:24.931Z,17.17
2023-03-22T07:31:29.170Z,14.53
2023-03-22T07:33:31.928Z,12.10
2023-03-22T07:35:36.986Z,12.77
2023-03-22T07:37:39.743Z,13.07
2023-03-22T07:39:42.480Z,11.77
2023-03-22T07:41:45.370Z,10.97
2023-03-22T07:43:56.666Z,10.67
2023-03-22T07:46:03.470Z,10.47
2023-03-22T07:48:06.384Z,10.27
2023-03-22T07:50:11.785Z,10.63
2023-03-22T07:52:15.968Z,14.07
2023-03-22T07:54:32.470Z,14.00
2023-03-22T07:56:36.731Z,11.13
2023-03-22T07:58:39.508Z,12.00
2023-03-22T08:00:42.272Z,10.87
2023-03-22T08:02:47.648Z,13.13
2023-03-22T08:04:54.508Z,10.90
2023-03-22T08:06:59.993Z,10.90
2023-03-22T08:09:04.637Z,11.07
2023-03-22T08:11:08.660Z,12.13
2023-03-22T08:13:11.628Z,11.30
2023-03-22T08:15:14.431Z,9.37
2023-03-22T08:17:17.490Z,12.10
2023-03-22T08:19:20.639Z,13.90
2023-03-22T08:21:23.498Z,11.57
2023-03-22T08:23:40.470Z,10.23
2023-03-22T08:25:45.771Z,10.40
2023-03-22T08:27:48.835Z,8.83
2023-03-22T08:29:51.629Z,11.07
2023-03-22T08:31:55.689Z,10.97
2023-03-22T08:33:59.700Z,10.90
2023-03-22T08:36:07.419Z,9.63
2023-03-22T08:38:10.380Z,12.13
2023-03-22T08:40:13.649Z,11.00
2023-03-22T08:42:17.873Z,9.67
2023-03-22T08:44:20.614Z,7.20
2023-03-22T08:46:23.368Z,8.47
2023-03-22T08:48:29.034Z,8.53
2023-03-22T08:50:34.327Z,9.23
2023-03-22T08:52:37.076Z,11.37
2023-03-22T08:54:39.815Z,8.70
2023-03-22T08:56:42.526Z,10.37
2023-03-22T08:58:46.848Z,7.97
2023-03-22T09:00:49.993Z,6.87
2023-03-22T09:02:52.925Z,7.73
2023-03-22T09:04:55.874Z,8.77
2023-03-22T09:06:58.640Z,9.67
2023-03-22T09:09:01.400Z,7.40
2023-03-22T09:11:04.472Z,9.93
2023-03-22T09:13:07.410Z,8.97
2023-03-22T09:15:12.053Z,6.93
2023-03-22T09:17:14.864Z,7.07
2023-03-22T09:19:17.656Z,7.00
2023-03-22T09:21:21.768Z,9.53
2023-03-22T09:23:24.571Z,8.20
2023-03-22T09:25:27.384Z,5.93
2023-03-22T09:27:30.720Z,8.80
2023-03-22T09:29:33.857Z,8.10
2023-03-22T09:31:38.086Z,7.77
2023-03-22T09:33:41.797Z,5.33
2023-03-22T09:35:45.008Z,7.97
2023-03-22T09:37:49.260Z,7.83
2023-03-22T09:39:52.103Z,8.67
2023-03-22T09:41:58.382Z,8.40
2023-03-22T09:44:05.081Z,9.00
2023-03-22T09:46:12.802Z,6.50
2023-03-22T09:48:21.762Z,6.20
2023-03-22T09:50:26.374Z,7.40
2023-03-22T09:52:30.675Z,9.23
2023-03-22T09:54:35.369Z,7.70
2023-03-22T09:56:38.394Z,8.93
2023-03-22T09:58:47.869Z,6.57
2023-03-22T10:00:56.968Z,6.63
2023-03-22T10:03:08.906Z,5.90
2023-03-22T10:05:19.689Z,7.70
2023-03-22T10:07:32.069Z,5.87
2023-03-22T10:09:43.096Z,7.33
2023-03-22T10:11:50.159Z,8.63
2023-03-22T10:14:01.833Z,6.33
2023-03-22T10:16:07.818Z,5.70
2023-03-22T10:18:16.981Z,5.83
2023-03-22T10:20:30.148Z,5.77
2023-03-22T10:22:37.334Z,5.17
2023-03-22T10:24:42.647Z,7.83
2023-03-22T10:26:47.785Z,7.17
2023-03-22T10:28:56.237Z,8.27
2023-03-22T10:30:59.545Z,6.00
2023-03-22T10:33:04.923Z,6.73
2023-03-22T10:35:08.632Z,8.27
2023-03-22T10:37:17.513Z,6.37
2023-03-22T10:39:29.584Z,6.60
2023-03-22T10:41:34.756Z,8.13
2023-03-22T10:43:39.787Z,5.67
2023-03-22T10:45:44.057Z,8.70
2023-03-22T10:47:51.190Z,6.23
2023-03-22T10:49:57.061Z,5.73
2023-03-22T10:52:04.697Z,5.97
2023-03-22T10:54:14.486Z,5.30
2023-03-22T10:56:20.060Z,8.83
2023-03-22T10:58:29.689Z,5.83
2023-03-22T11:00:32.860Z,4.90
2023-03-22T11:02:35.708Z,7.83
2023-03-22T11:04:38.592Z,7.43
2023-03-22T11:06:53.352Z,6.20
2023-03-22T11:09:01.291Z,5.23
2023-03-22T11:11:07.776Z,4.53
2023-03-22T11:13:21.530Z,6.47
2023-03-22T11:15:27.637Z,7.10
2023-03-22T11:17:33.055Z,5.70
2023-03-22T11:19:37.995Z,6.63
2023-03-22T11:21:43.263Z,4.50
2023-03-22T11:23:55.593Z,6.47
2023-03-22T11:26:05.977Z,6.60
2023-03-22T11:28:17.470Z,6.63
2023-03-22T11:30:23.523Z,5.33
2023-03-22T11:32:29.024Z,4.97
2023-03-22T11:34:32.605Z,7.60
2023-03-22T11:36:45.267Z,6.20
2023-03-22T11:38:48.976Z,4.23
2023-03-22T11:40:56.250Z,6.03
2023-03-22T11:43:18.123Z,7.07
2023-03-22T11:45:27.777Z,4.83
2023-03-22T11:47:37.894Z,7.30
2023-03-22T11:49:46.686Z,9.37
2023-03-22T11:51:50.072Z,4.70
2023-03-22T11:53:57.633Z,3.80
2023-03-22T11:56:00.888Z,7.73
2023-03-22T11:58:04.954Z,5.93
2023-03-22T12:00:19.968Z,5.90
2023-03-22T12:02:26.826Z,4.23
2023-03-22T12:04:32.657Z,5.10
2023-03-22T12:06:39.899Z,6.00
2023-03-22T12:08:47.384Z,4.53
2023-03-22T12:10:54.589Z,3.33
2023-03-22T12:13:01.365Z,5.87
2023-03-22T12:15:08.876Z,3.87
2023-03-22T12:17:18.546Z,4.23
2023-03-22T12:19:36.930Z,6.70
2023-03-22T12:21:39.777Z,9.17
2023-03-22T12:23:42.579Z,4.30
2023-03-22T12:25:51.273Z,5.03
2023-03-22T12:27:58.083Z,3.77
2023-03-22T12:30:08.007Z,3.10
2023-03-22T12:32:18.621Z,5.37
2023-03-22T12:34:26.112Z,5.00
2023-03-22T12:36:35.716Z,3.50
2023-03-22T12:38:42.201Z,3.90
2023-03-22T12:40:45.672Z,5.23
2023-03-22T12:42:58.377Z,3.60
2023-03-22T12:45:05.927Z,5.03
2023-03-22T12:47:17.384Z,4.23
2023-03-22T12:49:28.523Z,4.27
2023-03-22T12:51:31.356Z,4.60
2023-03-22T12:53:42.358Z,4.50
2023-03-22T12:55:46.863Z,5.27
2023-03-22T12:57:52.390Z,5.30
2023-03-22T12:59:58.333Z,4.73
2023-03-22T13:02:07.329Z,3.60
2023-03-22T13:04:33.116Z,4.07
2023-03-22T13:06:57.007Z,4.67
2023-03-22T13:09:15.636Z,3.10
2023-03-22T13:11:25.277Z,4.27
2023-03-22T13:13:42.135Z,4.37
2023-03-22T13:16:03.796Z,4.03
2023-03-22T13:18:23.897Z,4.00
2023-03-22T13:20:30.828Z,5.40
2023-03-22T13:23:04.799Z,3.67
2023-03-22T13:25:16.742Z,4.87
2023-03-22T13:27:19.970Z,3.47
2023-03-22T13:29:25.274Z,3.97
2023-03-22T13:31:38.425Z,4.50
2023-03-22T13:33:41.304Z,3.97
2023-03-22T13:35:48.693Z,3.87
2023-03-22T13:37:52.774Z,3.30
2023-03-22T13:39:56.897Z,4.50
2023-03-22T13:42:08.490Z,7.50
2023-03-22T13:44:25.522Z,3.80
2023-03-22T13:46:45.429Z,3.80
2023-03-22T13:49:14.358Z,4.30
2023-03-22T13:51:22.222Z,6.07
2023-03-22T13:53:31.019Z,4.70
2023-03-22T13:55:42.332Z,3.80
2023-03-22T13:57:58.835Z,3.77
2023-03-22T14:00:13.586Z,2.37
2023-03-22T14:02:25.903Z,3.67
2023-03-22T14:04:35.102Z,4.23
2023-03-22T14:06:48.527Z,3.93
2023-03-22T14:08:56.677Z,3.23
2023-03-22T14:11:04.980Z,3.37
2023-03-22T14:13:16.446Z,3.60
2023-03-22T14:15:22.681Z,2.07
2023-03-22T14:17:35.401Z,4.17
2023-03-22T14:19:39.115Z,4.10
2023-03-22T14:21:47.785Z,2.63
